메인 페이지
METAR-TAF:

METAR-TAF

공항 :

롤랑 가로스 공항

생드니, 레위니옹

위도: 20-53S, 경도: 055-31E, 고도: 21m

현재 날씨관측

예보는 40분 전, 01:00시(UTC)에 발표되었습니다.
남남동7kt
온도 21°C
습도 64%
기압 1018 hPa
시정 10km 이상
1500m 미만 상공 구름 및 적란운 없음

METAR: FMEE 300100Z AUTO 15007KT CAVOK 21/14 Q1018 NOSIG

시각: 05:40 (01:40 UTC)

예보

예보는 2 시간 40분 전, 23:00시(UTC)에 발표되었습니다.
예보 대상 시간: 30일 00시부터 31일 06시까지 (UTC)
남동10kt
시정 10km 이상
고도 2500ft 상공 구름 조금
전환 중
30일 04시부터 30일 06시까지 (UTC)
동북동10kt
전환 중
30일 13시부터 30일 15시까지 (UTC)
남남동8kt
전환 중
31일 03시부터 31일 05시까지 (UTC)
12kt

TAF: FMEE 292300Z 3000/3106 13010KT 9999 FEW025 BECMG 3004/3006 07010KT BECMG 3013/3015 15008KT BECMG 3103/3105 09012KT

4,000개 이상의 공항 관측 자료 및 예보 (METAR 및 TAF 보고).

지도상에서 검색 가능한 기상관측소가 노란 점과 빨간 점으로 표시되어 있습니다.

기상관측소 명을 보려면 표시 위로 마우스를 이동하세요.

날씨 관측과 예보를 보려면 클릭하세요.

지도 변경 : 확대하려면 엑스 표시가 있는 녹색 버튼, 축소하려면 빼기 표시가 있는 녹색 버튼, 다음 페이지의 지도를 보려면 녹색 화살표를 클릭하세요.


METAR-TAF: